createdAt,value
2018-05-10T03:01:05.965Z,978.52
2018-05-10T03:02:07.277Z,978.53
2018-05-10T03:03:06.139Z,978.45
2018-05-10T03:04:06.186Z,978.49
2018-05-10T03:05:06.235Z,978.49
2018-05-10T03:06:06.401Z,978.48
2018-05-10T03:07:06.579Z,978.46
2018-05-10T03:08:06.748Z,978.46
2018-05-10T03:09:06.916Z,978.44
2018-05-10T03:10:07.092Z,978.47
2018-05-10T03:11:07.218Z,978.49
2018-05-10T03:12:07.387Z,978.42
2018-05-10T03:13:07.508Z,978.43
2018-05-10T03:14:07.733Z,978.46
2018-05-10T03:15:07.946Z,978.49
2018-05-10T03:16:08.124Z,978.47
2018-05-10T03:17:08.248Z,978.50
2018-05-10T03:18:08.392Z,978.50
2018-05-10T03:19:08.617Z,978.48
2018-05-10T03:20:08.802Z,978.55
2018-05-10T03:21:08.857Z,978.51
2018-05-10T03:22:09.001Z,978.52
2018-05-10T03:23:09.206Z,978.49
2018-05-10T03:24:09.363Z,978.48
2018-05-10T03:25:09.516Z,978.48
2018-05-10T03:26:09.637Z,978.45
2018-05-10T03:27:09.855Z,978.46
2018-05-10T03:28:10.014Z,978.45
2018-05-10T03:29:10.116Z,978.47
2018-05-10T03:30:10.354Z,978.45
2018-05-10T03:31:10.531Z,978.42
2018-05-10T03:32:10.628Z,978.44
2018-05-10T03:33:10.895Z,978.41
2018-05-10T03:34:10.996Z,978.42
2018-05-10T03:35:11.177Z,978.44
2018-05-10T03:36:11.374Z,978.42
2018-05-10T03:37:11.501Z,978.40
2018-05-10T03:38:11.643Z,978.41
2018-05-10T03:39:11.788Z,978.43
2018-05-10T03:40:11.977Z,978.45
2018-05-10T03:41:12.131Z,978.46
2018-05-10T03:42:12.248Z,978.46
2018-05-10T03:43:12.437Z,978.52
2018-05-10T03:44:12.637Z,978.49
2018-05-10T03:45:12.811Z,978.49
2018-05-10T03:46:12.885Z,978.55
2018-05-10T03:47:13.105Z,978.53
2018-05-10T03:48:13.300Z,978.50
2018-05-10T03:49:13.435Z,978.51
2018-05-10T03:50:13.591Z,978.52
2018-05-10T03:51:13.756Z,978.51
2018-05-10T03:52:13.882Z,978.53
2018-05-10T03:53:14.068Z,978.61
2018-05-10T03:54:14.211Z,978.57
2018-05-10T03:55:14.384Z,978.55
2018-05-10T03:56:14.570Z,978.55
2018-05-10T03:57:14.718Z,978.55
2018-05-10T03:58:14.889Z,978.55
2018-05-10T03:59:15.082Z,978.55
2018-05-10T04:00:15.390Z,978.53
2018-05-10T04:01:15.355Z,978.50
2018-05-10T04:02:15.561Z,978.52
2018-05-10T04:03:15.716Z,978.53
2018-05-10T04:04:15.851Z,978.57
2018-05-10T04:05:16.017Z,978.58
2018-05-10T04:06:16.180Z,978.54
2018-05-10T04:07:16.292Z,978.53
2018-05-10T04:08:16.491Z,978.54
2018-05-10T04:09:16.632Z,978.57
2018-05-10T04:10:16.804Z,978.55
2018-05-10T04:11:17.000Z,978.55
2018-05-10T04:12:17.134Z,978.54
2018-05-10T04:13:17.324Z,978.55
2018-05-10T04:14:17.504Z,978.56
2018-05-10T04:15:17.660Z,978.55
2018-05-10T04:16:17.847Z,978.55
2018-05-10T04:17:17.956Z,978.59
2018-05-10T04:18:18.128Z,978.62
2018-05-10T04:19:18.298Z,978.57
2018-05-10T04:20:18.413Z,978.60
2018-05-10T04:21:18.553Z,978.61
2018-05-10T04:22:18.739Z,978.65
2018-05-10T04:23:18.935Z,978.63
2018-05-10T04:24:19.124Z,978.64
2018-05-10T04:25:19.290Z,978.67
2018-05-10T04:26:19.437Z,978.68
2018-05-10T04:27:19.653Z,978.67
2018-05-10T04:28:19.763Z,978.68
2018-05-10T04:29:19.895Z,978.69
2018-05-10T04:30:20.103Z,978.65
2018-05-10T04:31:20.291Z,978.65
2018-05-10T04:32:20.403Z,978.59
2018-05-10T04:33:20.527Z,978.63
2018-05-10T04:34:20.747Z,978.64
2018-05-10T04:35:20.891Z,978.65
2018-05-10T04:36:21.076Z,978.68
2018-05-10T04:37:21.293Z,978.66
2018-05-10T04:38:21.466Z,978.64
2018-05-10T04:39:21.600Z,978.61
2018-05-10T04:40:21.706Z,978.65
2018-05-10T04:41:21.947Z,978.65
2018-05-10T04:42:22.128Z,978.66
2018-05-10T04:43:22.264Z,978.61
2018-05-10T04:44:22.447Z,978.62
2018-05-10T04:45:22.546Z,978.62
2018-05-10T04:46:22.751Z,978.67
2018-05-10T04:47:22.887Z,978.64
2018-05-10T04:48:23.100Z,978.64
2018-05-10T04:49:23.212Z,978.62
2018-05-10T04:50:23.381Z,978.67
2018-05-10T04:51:23.526Z,978.68
2018-05-10T04:52:23.642Z,978.66
2018-05-10T04:53:23.842Z,978.74
2018-05-10T04:54:24.028Z,978.75
2018-05-10T04:55:24.163Z,978.76
2018-05-10T04:56:24.380Z,978.75
2018-05-10T04:57:24.498Z,978.74
2018-05-10T04:58:24.685Z,978.79
2018-05-10T04:59:24.786Z,978.81
2018-05-10T05:00:24.988Z,978.81
2018-05-10T05:01:25.170Z,978.79
2018-05-10T05:02:25.351Z,978.79
2018-05-10T05:03:25.533Z,978.83
2018-05-10T05:04:25.624Z,978.81
2018-05-10T05:05:25.769Z,978.84
2018-05-10T05:06:25.952Z,978.83
2018-05-10T05:07:26.130Z,978.81
2018-05-10T05:08:26.225Z,978.85
2018-05-10T05:09:26.420Z,978.81
2018-05-10T05:10:26.646Z,978.82
2018-05-10T05:11:26.777Z,978.79
2018-05-10T05:12:26.950Z,978.81
2018-05-10T05:13:27.077Z,978.79
2018-05-10T05:14:27.274Z,978.80
2018-05-10T05:15:27.427Z,978.83
2018-05-10T05:16:27.559Z,978.83
2018-05-10T05:17:27.727Z,978.88
2018-05-10T05:18:27.925Z,978.85
2018-05-10T05:19:28.022Z,978.85
2018-05-10T05:20:28.222Z,978.87
2018-05-10T05:21:28.390Z,978.86
2018-05-10T05:22:28.522Z,978.90
2018-05-10T05:23:28.697Z,978.90
2018-05-10T05:24:28.888Z,978.88
2018-05-10T05:25:29.058Z,978.87
2018-05-10T05:26:29.161Z,978.90
2018-05-10T05:27:29.511Z,978.90
2018-05-10T05:28:29.562Z,978.84
2018-05-10T05:29:29.705Z,978.88
2018-05-10T05:30:29.873Z,978.92
2018-05-10T05:31:30.025Z,978.87
2018-05-10T05:32:30.215Z,978.90
2018-05-10T05:33:30.375Z,978.91
2018-05-10T05:34:31.716Z,978.94
2018-05-10T05:35:43.495Z,978.97
2018-05-10T05:36:33.461Z,978.98
2018-05-10T05:37:32.946Z,978.97
2018-05-10T05:38:33.484Z,978.97
2018-05-10T05:39:32.242Z,978.94
2018-05-10T05:40:31.416Z,978.92
2018-05-10T05:41:31.530Z,978.91
2018-05-10T05:42:31.668Z,978.88
2018-05-10T05:43:31.923Z,978.87
2018-05-10T05:44:32.079Z,978.89
2018-05-10T05:45:32.202Z,978.92
2018-05-10T05:46:32.419Z,978.90
2018-05-10T05:47:32.596Z,978.94
2018-05-10T05:48:32.744Z,978.93
2018-05-10T05:49:32.887Z,978.92
2018-05-10T05:50:33.057Z,978.93
2018-05-10T05:51:33.214Z,978.93
2018-05-10T05:52:33.371Z,978.98
2018-05-10T05:53:33.514Z,978.95
2018-05-10T05:54:33.664Z,978.96
2018-05-10T05:55:33.829Z,978.96
2018-05-10T05:56:34.089Z,978.96
2018-05-10T05:57:34.157Z,978.96
2018-05-10T05:58:34.346Z,979.00
2018-05-10T05:59:34.472Z,979.04
2018-05-10T06:00:34.690Z,979.04
2018-05-10T06:01:34.779Z,979.06
2018-05-10T06:02:34.995Z,979.06
2018-05-10T06:03:35.174Z,979.11
2018-05-10T06:04:35.363Z,979.11
2018-05-10T06:05:35.619Z,979.10
2018-05-10T06:06:35.699Z,979.08
2018-05-10T06:07:35.979Z,979.09
2018-05-10T06:08:36.183Z,979.11
2018-05-10T06:09:36.169Z,979.12
2018-05-10T06:10:36.290Z,979.10
2018-05-10T06:11:36.487Z,979.17
2018-05-10T06:12:36.686Z,979.15
2018-05-10T06:13:36.897Z,979.21
2018-05-10T06:14:37.081Z,979.21
2018-05-10T06:15:37.266Z,979.19
2018-05-10T06:16:37.379Z,979.24
2018-05-10T06:17:37.565Z,979.17
2018-05-10T06:18:37.669Z,979.22
2018-05-10T06:19:37.836Z,979.21
2018-05-10T06:20:38.187Z,979.18
2018-05-10T06:21:38.260Z,979.23
2018-05-10T06:22:38.369Z,979.22
2018-05-10T06:23:38.560Z,979.21
2018-05-10T06:24:38.775Z,979.22
2018-05-10T06:25:38.883Z,979.20
2018-05-10T06:26:38.945Z,979.21
2018-05-10T06:27:39.151Z,979.20
2018-05-10T06:28:39.384Z,979.19
2018-05-10T06:29:39.452Z,979.18
2018-05-10T06:30:39.645Z,979.16
2018-05-10T06:31:39.837Z,979.14
2018-05-10T06:32:39.966Z,979.16
2018-05-10T06:33:40.132Z,979.15
2018-05-10T06:34:40.289Z,979.15
2018-05-10T06:35:40.436Z,979.17
2018-05-10T06:36:40.595Z,979.23
2018-05-10T06:37:40.731Z,979.21
2018-05-10T06:38:40.973Z,979.29
2018-05-10T06:39:41.085Z,979.28
2018-05-10T06:40:41.269Z,979.30
2018-05-10T06:41:41.465Z,979.32
2018-05-10T06:42:41.591Z,979.39
2018-05-10T06:43:41.831Z,979.38
2018-05-10T06:44:41.982Z,979.43
2018-05-10T06:45:42.141Z,979.45
2018-05-10T06:46:42.257Z,979.49
2018-05-10T06:47:42.433Z,979.50
2018-05-10T06:48:42.548Z,979.50
2018-05-10T06:49:42.774Z,979.49
2018-05-10T06:50:42.895Z,979.55
2018-05-10T06:51:43.098Z,979.56
2018-05-10T06:52:43.209Z,979.54
2018-05-10T06:53:43.429Z,979.55
2018-05-10T06:54:43.634Z,979.58
2018-05-10T06:55:43.816Z,979.50
2018-05-10T06:56:43.977Z,979.56
2018-05-10T06:57:44.115Z,979.55
2018-05-10T06:58:44.293Z,979.58
2018-05-10T06:59:44.429Z,979.55
2018-05-10T07:00:44.588Z,979.54
2018-05-10T07:01:44.763Z,979.56
2018-05-10T07:02:44.927Z,979.56
2018-05-10T07:03:45.018Z,979.53
2018-05-10T07:04:45.214Z,979.57
2018-05-10T07:05:45.412Z,979.54
2018-05-10T07:06:45.560Z,979.57
2018-05-10T07:07:45.745Z,979.59
2018-05-10T07:08:45.819Z,979.61
2018-05-10T07:09:46.307Z,979.64
2018-05-10T07:10:46.195Z,979.65
2018-05-10T07:11:46.355Z,979.62
2018-05-10T07:12:46.503Z,979.69
2018-05-10T07:13:46.705Z,979.65
2018-05-10T07:14:46.858Z,979.70
2018-05-10T07:15:47.021Z,979.71
2018-05-10T07:16:47.154Z,979.70
2018-05-10T07:17:47.363Z,979.70
2018-05-10T07:18:47.497Z,979.70
2018-05-10T07:19:47.678Z,979.68
2018-05-10T07:20:47.807Z,979.70
2018-05-10T07:21:47.962Z,979.72
2018-05-10T07:22:48.141Z,979.71
2018-05-10T07:23:48.323Z,979.72
2018-05-10T07:24:48.510Z,979.74
2018-05-10T07:25:48.623Z,979.72
2018-05-10T07:26:48.768Z,979.72
2018-05-10T07:27:48.973Z,979.74
2018-05-10T07:28:49.157Z,979.73
2018-05-10T07:29:49.334Z,979.71
2018-05-10T07:30:49.453Z,979.75
2018-05-10T07:31:49.612Z,979.72
2018-05-10T07:32:49.818Z,979.78
2018-05-10T07:33:49.971Z,979.77
2018-05-10T07:34:50.143Z,979.77
2018-05-10T07:35:50.331Z,979.77
2018-05-10T07:36:50.528Z,979.76
2018-05-10T07:37:50.679Z,979.80
2018-05-10T07:38:50.784Z,979.82
2018-05-10T07:39:50.998Z,979.81
2018-05-10T07:40:51.169Z,979.79
2018-05-10T07:41:51.369Z,979.84
2018-05-10T07:42:51.551Z,979.83
2018-05-10T07:43:51.709Z,979.80
2018-05-10T07:44:51.847Z,979.85
2018-05-10T07:45:52.063Z,979.88
2018-05-10T07:46:52.191Z,979.91
2018-05-10T07:47:52.375Z,979.96
2018-05-10T07:48:52.501Z,979.92
2018-05-10T07:49:52.720Z,979.91
2018-05-10T07:50:52.865Z,979.88
2018-05-10T07:51:53.115Z,979.89
2018-05-10T07:52:53.258Z,979.87
2018-05-10T07:53:53.414Z,979.86
2018-05-10T07:54:53.519Z,979.88
2018-05-10T07:55:53.730Z,979.88
2018-05-10T07:56:53.865Z,979.88
2018-05-10T07:57:54.006Z,979.89
2018-05-10T07:58:54.175Z,979.87
2018-05-10T07:59:54.398Z,979.85
2018-05-10T08:00:54.555Z,979.96
2018-05-10T08:01:54.677Z,979.91
2018-05-10T08:02:54.941Z,979.95
2018-05-10T08:03:55.010Z,979.93
2018-05-10T08:04:55.201Z,979.95
2018-05-10T08:05:55.433Z,979.92
2018-05-10T08:06:55.485Z,979.94
2018-05-10T08:07:55.696Z,979.95
2018-05-10T08:08:55.821Z,979.97
2018-05-10T08:09:56.027Z,979.97
2018-05-10T08:10:56.337Z,979.93
2018-05-10T08:11:56.281Z,979.98
2018-05-10T08:12:56.503Z,979.98
2018-05-10T08:13:56.666Z,979.97
2018-05-10T08:14:56.835Z,980.06
2018-05-10T08:15:56.991Z,980.09
2018-05-10T08:16:57.193Z,980.08
2018-05-10T08:17:57.309Z,980.09
2018-05-10T08:18:57.420Z,980.10
2018-05-10T08:19:57.625Z,980.10
2018-05-10T08:20:57.832Z,980.13
2018-05-10T08:21:58.233Z,980.09
2018-05-10T08:22:58.214Z,980.19
2018-05-10T08:23:58.346Z,980.14
2018-05-10T08:24:58.893Z,980.12
2018-05-10T08:25:58.806Z,980.15
2018-05-10T08:26:59.070Z,980.13
2018-05-10T08:27:59.108Z,980.19
2018-05-10T08:28:59.329Z,980.18
2018-05-10T08:29:59.383Z,980.18
2018-05-10T08:30:59.695Z,980.17
2018-05-10T08:31:59.782Z,980.19
2018-05-10T08:32:59.981Z,980.17
2018-05-10T08:34:00.165Z,980.16
2018-05-10T08:35:00.291Z,980.18
2018-05-10T08:36:00.365Z,980.21
2018-05-10T08:37:00.589Z,980.23
2018-05-10T08:38:00.801Z,980.23
2018-05-10T08:39:00.903Z,980.20
2018-05-10T08:40:01.088Z,980.23
2018-05-10T08:41:01.278Z,980.26
2018-05-10T08:42:01.404Z,980.24
2018-05-10T08:43:01.542Z,980.26
2018-05-10T08:44:01.756Z,980.24
2018-05-10T08:45:01.900Z,980.26
2018-05-10T08:46:02.089Z,980.26
2018-05-10T08:47:02.263Z,980.26
2018-05-10T08:48:02.380Z,980.26
2018-05-10T08:49:02.597Z,980.29
2018-05-10T08:50:02.696Z,980.28
2018-05-10T08:51:02.905Z,980.24
2018-05-10T08:52:03.125Z,980.28
2018-05-10T08:53:03.287Z,980.27
2018-05-10T08:54:03.466Z,980.27
2018-05-10T08:55:03.546Z,980.30
2018-05-10T08:56:03.794Z,980.32
2018-05-10T08:57:03.881Z,980.33
2018-05-10T08:58:04.109Z,980.34
2018-05-10T08:59:04.234Z,980.32
2018-05-10T09:00:04.429Z,980.38
2018-05-10T09:01:04.592Z,980.34
2018-05-10T09:02:04.739Z,980.29
2018-05-10T09:03:04.896Z,980.33
2018-05-10T09:04:05.048Z,980.29
2018-05-10T09:05:05.254Z,980.29
2018-05-10T09:06:05.427Z,980.32
2018-05-10T09:07:05.685Z,980.30
2018-05-10T09:08:05.863Z,980.33
2018-05-10T09:09:06.019Z,980.28
2018-05-10T09:10:06.111Z,980.28
2018-05-10T09:11:06.302Z,980.28
2018-05-10T09:12:06.443Z,980.26
2018-05-10T09:13:06.654Z,980.31
2018-05-10T09:14:06.862Z,980.27
2018-05-10T09:15:06.939Z,980.31
2018-05-10T09:16:07.121Z,980.25
2018-05-10T09:17:07.303Z,980.30
2018-05-10T09:18:07.480Z,980.30
2018-05-10T09:19:07.651Z,980.27
2018-05-10T09:20:07.818Z,980.29
2018-05-10T09:21:07.950Z,980.24
2018-05-10T09:22:08.180Z,980.29
2018-05-10T09:23:08.334Z,980.24
2018-05-10T09:24:08.583Z,980.27
2018-05-10T09:25:08.759Z,980.32
2018-05-10T09:26:08.807Z,980.32
2018-05-10T09:27:09.023Z,980.30
2018-05-10T09:28:09.173Z,980.35
2018-05-10T09:29:09.403Z,980.38
2018-05-10T09:30:09.446Z,980.48
2018-05-10T09:31:09.628Z,980.51
2018-05-10T09:32:09.795Z,980.54
2018-05-10T09:33:09.939Z,980.56
2018-05-10T09:34:10.196Z,980.58
2018-05-10T09:35:10.332Z,980.64
2018-05-10T09:36:10.456Z,980.67
2018-05-10T09:37:10.631Z,980.73
2018-05-10T09:38:10.813Z,980.77
2018-05-10T09:39:11.068Z,980.78
2018-05-10T09:40:11.180Z,980.73
2018-05-10T09:41:11.317Z,980.82
2018-05-10T09:42:11.543Z,980.81
2018-05-10T09:43:11.650Z,980.85
2018-05-10T09:44:11.770Z,980.89
2018-05-10T09:45:12.005Z,981.00
2018-05-10T09:46:12.126Z,981.07
2018-05-10T09:47:12.327Z,981.14
2018-05-10T09:48:12.505Z,981.19
2018-05-10T09:49:12.646Z,981.15
2018-05-10T09:50:12.867Z,981.13
2018-05-10T09:51:12.961Z,981.10
2018-05-10T09:52:13.190Z,980.95
2018-05-10T09:53:13.392Z,980.90
2018-05-10T09:54:13.435Z,980.93
2018-05-10T09:55:13.663Z,980.87
2018-05-10T09:56:13.808Z,980.89
2018-05-10T09:57:13.989Z,980.88
2018-05-10T09:58:14.152Z,980.95
2018-05-10T09:59:14.381Z,980.92
2018-05-10T10:00:14.515Z,981.01
2018-05-10T10:01:14.736Z,980.90
2018-05-10T10:02:14.855Z,980.92
2018-05-10T10:03:15.101Z,980.88
2018-05-10T10:04:15.271Z,980.93
2018-05-10T10:05:15.415Z,980.94
2018-05-10T10:06:15.551Z,980.92
2018-05-10T10:07:15.733Z,980.95
2018-05-10T10:08:15.854Z,980.99
2018-05-10T10:09:16.046Z,980.93
2018-05-10T10:10:16.258Z,980.94
2018-05-10T10:11:16.413Z,980.91
2018-05-10T10:12:16.558Z,980.98
2018-05-10T10:13:16.797Z,980.97
2018-05-10T10:14:16.990Z,980.96
2018-05-10T10:15:17.134Z,980.90
2018-05-10T10:16:17.297Z,980.94
2018-05-10T10:17:17.466Z,980.93
2018-05-10T10:18:17.722Z,980.91
2018-05-10T10:19:17.839Z,980.94
2018-05-10T10:20:17.945Z,980.90
2018-05-10T10:21:18.148Z,980.94
2018-05-10T10:22:18.272Z,980.95
2018-05-10T10:23:18.432Z,980.98
2018-05-10T10:24:18.615Z,980.98
2018-05-10T10:25:18.886Z,980.99
2018-05-10T10:26:18.956Z,980.86
2018-05-10T10:27:19.286Z,980.98
2018-05-10T10:28:19.322Z,980.98
2018-05-10T10:29:19.460Z,980.98
2018-05-10T10:30:19.699Z,980.98
2018-05-10T10:31:19.845Z,980.97
2018-05-10T10:32:19.966Z,980.61
2018-05-10T10:33:20.171Z,980.63
2018-05-10T10:34:20.329Z,980.63
2018-05-10T10:35:20.456Z,980.61
2018-05-10T10:36:20.702Z,980.59
2018-05-10T10:37:20.840Z,980.67
2018-05-10T10:38:21.124Z,980.71
2018-05-10T10:39:21.239Z,982.05
2018-05-10T10:40:21.395Z,981.96
2018-05-10T10:41:21.560Z,981.46
2018-05-10T10:42:21.744Z,981.94
2018-05-10T10:43:21.903Z,982.32
2018-05-10T10:44:22.021Z,982.62
2018-05-10T10:45:22.271Z,982.56
2018-05-10T10:46:22.421Z,981.01
2018-05-10T10:47:22.701Z,982.77
2018-05-10T10:48:22.828Z,982.76
2018-05-10T10:49:22.944Z,982.60
2018-05-10T10:50:23.225Z,980.81
2018-05-10T10:51:23.229Z,980.78
2018-05-10T10:52:23.480Z,982.24
2018-05-10T10:53:23.600Z,982.22
2018-05-10T10:54:23.773Z,982.16
2018-05-10T10:55:24.017Z,982.07
2018-05-10T10:56:24.073Z,982.04
2018-05-10T10:57:24.249Z,982.04
2018-05-10T10:58:24.461Z,982.06
2018-05-10T10:59:24.574Z,981.01
2018-05-10T11:00:24.775Z,981.65
2018-05-10T11:01:24.992Z,980.81
2018-05-10T11:02:25.147Z,980.86
2018-05-10T11:03:25.277Z,980.88
2018-05-10T11:04:25.510Z,981.69
2018-05-10T11:05:25.652Z,980.96
2018-05-10T11:06:25.853Z,980.95
2018-05-10T11:07:26.024Z,980.95
2018-05-10T11:08:26.227Z,981.96
2018-05-10T11:09:26.351Z,981.94
2018-05-10T11:10:26.575Z,981.98
2018-05-10T11:11:26.664Z,981.97
2018-05-10T11:12:26.799Z,981.90
2018-05-10T11:13:27.052Z,981.89
2018-05-10T11:14:27.203Z,981.36
2018-05-10T11:15:27.377Z,981.10
2018-05-10T11:16:27.610Z,981.05
2018-05-10T11:17:27.734Z,981.12
2018-05-10T11:18:27.868Z,981.94
2018-05-10T11:19:28.017Z,981.91
2018-05-10T11:20:28.247Z,981.91
2018-05-10T11:21:28.367Z,981.94
2018-05-10T11:22:28.580Z,981.58
2018-05-10T11:23:28.730Z,981.84
2018-05-10T11:24:28.902Z,981.78
2018-05-10T11:25:29.101Z,981.86
2018-05-10T11:26:29.290Z,981.84
2018-05-10T11:27:29.491Z,981.18
2018-05-10T11:28:29.653Z,980.96
2018-05-10T11:29:29.845Z,981.06
2018-05-10T11:30:29.918Z,981.10
2018-05-10T11:31:30.174Z,981.09
2018-05-10T11:32:30.353Z,981.14
2018-05-10T11:33:30.452Z,981.19
2018-05-10T11:34:30.623Z,981.14
2018-05-10T11:35:30.809Z,981.10
2018-05-10T11:36:30.994Z,981.11
2018-05-10T11:37:31.198Z,981.13
2018-05-10T11:38:31.339Z,981.28
2018-05-10T11:39:31.542Z,981.37
2018-05-10T11:40:31.707Z,981.88
2018-05-10T11:41:31.898Z,981.85
2018-05-10T11:42:32.088Z,981.01
2018-05-10T11:43:32.216Z,980.98
2018-05-10T11:44:32.459Z,981.05
2018-05-10T11:45:32.570Z,981.04
2018-05-10T11:46:32.754Z,981.06
2018-05-10T11:47:32.940Z,981.05
2018-05-10T11:48:33.163Z,981.91
2018-05-10T11:49:33.325Z,981.93
2018-05-10T11:50:33.411Z,981.91
2018-05-10T11:51:33.661Z,981.89
2018-05-10T11:52:33.767Z,981.89
2018-05-10T11:53:33.909Z,981.93
2018-05-10T11:54:34.099Z,981.95
2018-05-10T11:55:34.273Z,982.07
2018-05-10T11:56:34.534Z,981.97
2018-05-10T11:57:34.658Z,982.10
2018-05-10T11:58:34.795Z,981.23
2018-05-10T11:59:34.910Z,981.28
2018-05-10T12:00:35.142Z,981.33
2018-05-10T12:01:35.250Z,981.40
2018-05-10T12:02:35.517Z,981.41
2018-05-10T12:03:35.630Z,982.11
2018-05-10T12:04:35.765Z,982.20
2018-05-10T12:05:35.998Z,982.17
2018-05-10T12:06:36.162Z,982.20
2018-05-10T12:07:36.299Z,981.48
2018-05-10T12:08:36.502Z,982.13
2018-05-10T12:09:36.707Z,981.74
2018-05-10T12:10:36.843Z,982.35
2018-05-10T12:11:37.050Z,982.09
2018-05-10T12:12:37.265Z,981.59
2018-05-10T12:13:37.454Z,981.63
2018-05-10T12:14:37.699Z,982.14
2018-05-10T12:15:37.736Z,982.29
2018-05-10T12:16:37.901Z,982.34
2018-05-10T12:17:38.043Z,982.03
2018-05-10T12:18:38.268Z,981.88
2018-05-10T12:19:38.429Z,981.82
2018-05-10T12:20:38.636Z,981.79
2018-05-10T12:21:38.776Z,981.77
2018-05-10T12:22:39.015Z,981.80
2018-05-10T12:23:39.129Z,981.75
2018-05-10T12:24:39.455Z,981.69
2018-05-10T12:25:39.620Z,981.77
2018-05-10T12:26:39.740Z,981.76
2018-05-10T12:27:40.022Z,981.77
2018-05-10T12:28:40.140Z,981.80
2018-05-10T12:29:40.311Z,981.81
2018-05-10T12:30:41.348Z,981.84
2018-05-10T12:31:40.632Z,981.94
2018-05-10T12:32:40.874Z,981.90
2018-05-10T12:33:41.108Z,981.94
2018-05-10T12:34:41.495Z,981.99
2018-05-10T12:39:15.139Z,981.97
2018-05-10T12:40:04.401Z,981.91
2018-05-10T12:41:18.090Z,981.96
2018-05-10T12:43:04.541Z,981.95
2018-05-10T12:44:05.602Z,981.93
2018-05-10T12:45:05.770Z,981.98
2018-05-10T12:46:03.400Z,981.98
2018-05-10T12:47:07.111Z,982.00
2018-05-10T12:50:16.619Z,981.95
2018-05-10T12:51:06.689Z,981.89
2018-05-10T12:52:11.137Z,981.94
2018-05-10T12:53:07.051Z,981.93
2018-05-10T12:54:08.041Z,981.99
2018-05-10T12:55:16.051Z,982.01
2018-05-10T12:56:06.489Z,982.05
2018-05-10T12:57:06.668Z,982.06
2018-05-10T12:58:05.693Z,982.14
2018-05-10T12:59:05.863Z,982.20
2018-05-10T13:00:06.092Z,982.29
2018-05-10T13:01:06.176Z,982.28
2018-05-10T13:02:06.329Z,982.31
2018-05-10T13:03:06.605Z,982.39
2018-05-10T13:04:06.666Z,982.43
2018-05-10T13:05:06.857Z,982.51
2018-05-10T13:06:07.059Z,982.51
2018-05-10T13:07:07.293Z,982.62
2018-05-10T13:08:07.523Z,982.56
2018-05-10T13:09:07.631Z,982.71
2018-05-10T13:10:07.856Z,982.66
2018-05-10T13:11:07.971Z,982.70
2018-05-10T13:12:08.182Z,982.81
2018-05-10T13:13:08.430Z,982.84
2018-05-10T13:14:08.587Z,982.84
2018-05-10T13:15:08.677Z,982.91
2018-05-10T13:16:08.932Z,982.96
2018-05-10T13:17:09.088Z,983.02
2018-05-10T13:18:09.237Z,983.03
2018-05-10T13:19:09.423Z,983.11
2018-05-10T13:20:09.566Z,983.15
2018-05-10T13:21:09.725Z,983.18
2018-05-10T13:22:09.943Z,983.12
2018-05-10T13:23:10.179Z,983.20
2018-05-10T13:24:10.279Z,983.23
2018-05-10T13:25:10.413Z,983.24
2018-05-10T13:26:10.586Z,983.26
2018-05-10T13:27:10.752Z,983.29
2018-05-10T13:28:10.855Z,983.34
2018-05-10T13:29:11.036Z,983.34
2018-05-10T13:30:11.266Z,983.32
2018-05-10T13:31:11.450Z,983.31
2018-05-10T13:32:11.562Z,983.31
2018-05-10T13:33:11.783Z,983.33
2018-05-10T13:34:11.867Z,983.32
2018-05-10T13:35:12.068Z,983.32
2018-05-10T13:36:12.242Z,983.33
2018-05-10T13:37:12.478Z,983.29
2018-05-10T13:38:12.646Z,983.33
2018-05-10T13:39:12.838Z,983.39
2018-05-10T13:40:13.008Z,983.36
2018-05-10T13:41:13.139Z,983.35
2018-05-10T13:42:13.293Z,983.38
2018-05-10T13:43:13.469Z,983.41
2018-05-10T13:44:13.607Z,983.39
2018-05-10T13:45:13.745Z,983.37
2018-05-10T13:46:13.916Z,983.40
2018-05-10T13:47:14.228Z,983.45
2018-05-10T13:48:14.313Z,983.40
2018-05-10T13:49:14.448Z,983.42
2018-05-10T13:50:14.593Z,983.42
2018-05-10T13:51:14.738Z,983.42
2018-05-10T13:52:14.878Z,983.43
2018-05-10T13:53:15.073Z,983.41
2018-05-10T13:54:15.336Z,983.42
2018-05-10T13:55:15.471Z,983.41
2018-05-10T13:56:15.625Z,983.44
2018-05-10T13:57:15.729Z,983.46
2018-05-10T13:58:15.975Z,983.50
2018-05-10T13:59:16.049Z,983.55
2018-05-10T14:00:16.312Z,983.58
2018-05-10T14:01:16.427Z,983.57
2018-05-10T14:02:16.653Z,983.57
2018-05-10T14:03:16.815Z,983.56
2018-05-10T14:04:16.897Z,983.60
2018-05-10T14:05:17.056Z,983.63
2018-05-10T14:06:17.288Z,983.64
2018-05-10T14:07:17.472Z,983.71
2018-05-10T14:08:17.581Z,983.70
2018-05-10T14:09:17.774Z,983.72
2018-05-10T14:10:17.965Z,983.76
2018-05-10T14:11:18.021Z,983.77
2018-05-10T14:12:18.300Z,983.74
2018-05-10T14:13:18.468Z,983.82
2018-05-10T14:14:18.711Z,983.84
2018-05-10T14:15:18.749Z,983.88
2018-05-10T14:16:19.037Z,983.79
2018-05-10T14:17:19.151Z,983.84
2018-05-10T14:18:19.326Z,983.87
2018-05-10T14:19:19.541Z,983.84
2018-05-10T14:20:19.673Z,983.84
2018-05-10T14:21:19.921Z,983.81
2018-05-10T14:22:20.081Z,983.83
2018-05-10T14:23:20.200Z,983.86
2018-05-10T14:24:20.413Z,983.88
2018-05-10T14:25:20.611Z,983.91
2018-05-10T14:26:20.751Z,983.90
2018-05-10T14:27:20.949Z,983.93
2018-05-10T14:28:21.069Z,983.90
2018-05-10T14:29:21.291Z,983.88
2018-05-10T14:30:21.436Z,983.87
2018-05-10T14:31:21.563Z,983.88
2018-05-10T14:32:21.703Z,983.88
2018-05-10T14:33:21.940Z,983.89
2018-05-10T14:34:22.009Z,983.92
2018-05-10T14:35:22.215Z,983.89
2018-05-10T14:36:22.424Z,983.94
2018-05-10T14:37:22.566Z,983.95
2018-05-10T14:38:22.700Z,983.95
2018-05-10T14:39:22.945Z,983.95
2018-05-10T14:40:23.052Z,984.02
2018-05-10T14:41:23.205Z,984.00
2018-05-10T14:42:23.377Z,984.00
2018-05-10T14:43:23.508Z,983.99
2018-05-10T14:44:23.706Z,984.02
2018-05-10T14:45:23.859Z,983.98
2018-05-10T14:46:24.012Z,984.02
2018-05-10T14:47:24.243Z,984.01
2018-05-10T14:48:24.292Z,984.05
2018-05-10T14:49:24.557Z,984.08
2018-05-10T14:50:24.622Z,984.12
2018-05-10T14:51:24.804Z,984.08
2018-05-10T14:52:25.035Z,984.14
2018-05-10T14:53:25.218Z,984.12
2018-05-10T14:54:25.625Z,984.07
2018-05-10T14:55:25.526Z,984.18
2018-05-10T14:56:25.693Z,984.17
2018-05-10T14:57:25.827Z,984.22
2018-05-10T14:58:25.976Z,984.30
2018-05-10T14:59:26.153Z,984.29
2018-05-10T15:00:26.346Z,984.39
2018-05-10T15:01:26.514Z,984.35
2018-05-10T15:02:26.691Z,984.46
2018-05-10T15:03:26.887Z,984.47
2018-05-10T15:04:26.969Z,984.52
2018-05-10T15:05:27.136Z,984.48
2018-05-10T15:06:27.342Z,984.46
2018-05-10T15:07:27.519Z,984.49
2018-05-10T15:08:27.724Z,984.47
2018-05-10T15:09:27.872Z,984.53
2018-05-10T15:10:28.029Z,984.50
2018-05-10T15:11:28.352Z,984.53
2018-05-10T15:12:28.393Z,984.60
2018-05-10T15:13:28.564Z,984.64
2018-05-10T15:14:28.753Z,984.49
2018-05-10T15:15:28.904Z,984.50
2018-05-10T15:16:29.120Z,984.55
2018-05-10T15:17:29.210Z,984.51
2018-05-10T15:18:29.400Z,984.58
2018-05-10T15:19:29.532Z,984.60
2018-05-10T15:20:29.705Z,984.58
2018-05-10T15:21:29.929Z,984.65
2018-05-10T15:22:30.023Z,984.66
2018-05-10T15:23:30.231Z,984.69
2018-05-10T15:24:30.385Z,984.84
2018-05-10T15:25:30.509Z,984.75
2018-05-10T15:26:30.679Z,984.77
2018-05-10T15:27:30.871Z,984.73
2018-05-10T15:28:31.071Z,984.76
2018-05-10T15:29:31.260Z,984.76
2018-05-10T15:30:31.396Z,984.85
2018-05-10T15:31:31.624Z,984.77
2018-05-10T15:32:31.737Z,984.79
2018-05-10T15:33:31.905Z,984.85
2018-05-10T15:34:32.063Z,984.90
2018-05-10T15:35:32.304Z,984.89
2018-05-10T15:36:32.397Z,984.93
2018-05-10T15:37:32.571Z,984.91